Time;durP1;ratioP1;P1;durP2;ratioP2;P2;SDS_P1;SDS_P2;PMS_P1;PMS_P2;Temp;Humidity;BMP_temperature;BMP_pressure;BME280_temperature;BME280_humidity;BME280_pressure;Samples;Min_cycle;Max_cycle;Signal;HPM_P1;HPM_P2
2023/10/13 00:01:04;;;;;;;21.20;8.90;;;17.50;99.90;;;;;;4994021;28;20030;-49
2023/10/13 00:03:31;;;;;;;19.10;7.80;;;17.40;99.90;;;;;;4994801;28;20025;-45
2023/10/13 00:06:02;;;;;;;15.60;7.60;;;17.30;99.90;;;;;;4995018;28;20386;-45
2023/10/13 00:08:29;;;;;;;16.67;7.88;;;17.30;99.90;;;;;;4995330;28;20030;-48
2023/10/13 00:11:02;;;;;;;15.27;8.13;;;17.20;99.90;;;;;;4995157;28;20398;-45
2023/10/13 00:13:29;;;;;;;16.17;7.75;;;17.20;99.90;;;;;;4994858;28;20031;-49
2023/10/13 00:15:57;;;;;;;16.25;7.43;;;17.30;99.90;;;;;;4994871;28;20023;-46
2023/10/13 00:18:41;;;;;;;10.18;7.53;;;17.30;99.90;;;;;;4994852;28;20026;-46
2023/10/13 00:21:13;;;;;;;17.27;8.00;;;17.20;99.90;;;;;;4995029;28;20028;-46
2023/10/13 00:23:53;;;;;;;14.50;6.80;;;17.20;99.90;;;;;;4994838;28;20018;-48
2023/10/13 00:26:23;;;;;;;15.98;7.97;;;17.20;99.90;;;;;;4993588;28;20114;-47
2023/10/13 00:28:58;;;;;;;18.17;8.13;;;17.30;99.90;;;;;;4994758;28;20026;-46
2023/10/13 00:31:26;;;;;;;25.55;7.80;;;17.30;99.90;;;;;;4994928;28;20035;-49
2023/10/13 00:33:55;;;;;;;18.08;8.18;;;17.30;99.90;;;;;;4994728;28;20045;-50
2023/10/13 00:36:21;;;;;;;17.83;7.35;;;17.30;99.90;;;;;;4994312;28;20022;-48
2023/10/13 00:38:52;;;;;;;15.00;7.57;;;17.30;99.90;;;;;;4994612;28;20556;-48
2023/10/13 00:41:33;;;;;;;17.13;8.00;;;17.30;99.90;;;;;;4994462;28;20034;-45
2023/10/13 00:44:04;;;;;;;21.05;8.05;;;17.30;99.90;;;;;;4993144;28;20549;-47
2023/10/13 00:46:33;;;;;;;18.58;7.78;;;17.40;99.90;;;;;;4994266;28;20540;-45
2023/10/13 00:48:59;;;;;;;15.25;7.72;;;17.40;99.90;;;;;;4994494;28;20030;-46
2023/10/13 00:51:47;;;;;;;21.48;8.52;;;17.40;99.90;;;;;;4992964;28;20026;-51
2023/10/13 00:54:16;;;;;;;17.70;7.10;;;17.40;99.90;;;;;;4994411;28;20085;-46
2023/10/13 00:59:47;;;;;;;19.70;7.40;;;17.40;99.90;;;;;;4972475;28;20041;-50
2023/10/13 01:04:57;;;;;;;14.32;8.02;;;17.40;99.90;;;;;;4994214;28;20034;-47
2023/10/13 01:07:23;;;;;;;21.85;7.53;;;17.40;99.90;;;;;;4993910;28;20026;-45
2023/10/13 01:09:48;;;;;;;14.95;7.60;;;17.40;99.90;;;;;;4994098;28;20026;-46
2023/10/13 01:12:14;;;;;;;21.63;8.43;;;17.40;99.90;;;;;;4993688;28;20034;-47
2023/10/13 01:14:40;;;;;;;17.70;6.95;;;17.40;99.90;;;;;;4993921;28;20054;-45
2023/10/13 01:17:05;;;;;;;18.75;7.60;;;17.40;99.90;;;;;;4993721;28;20524;-47
2023/10/13 01:19:38;;;;;;;23.33;8.27;;;17.40;99.90;;;;;;4992764;28;20552;-46
2023/10/13 01:22:06;;;;;;;23.30;7.63;;;17.40;99.90;;;;;;4993782;28;20026;-50
2023/10/13 01:24:34;;;;;;;16.60;7.90;;;17.30;99.90;;;;;;4993665;28;20023;-45
2023/10/13 01:27:24;;;;;;;20.92;9.05;;;17.30;99.90;;;;;;4993501;28;20118;-50
2023/10/13 01:29:55;;;;;;;17.92;7.75;;;17.30;99.90;;;;;;4993707;28;20018;-50
2023/10/13 01:32:23;;;;;;;16.67;8.80;;;17.30;99.90;;;;;;4993499;28;20084;-45
2023/10/13 01:34:49;;;;;;;16.52;7.60;;;17.30;99.90;;;;;;4992210;28;20030;-50
2023/10/13 01:37:19;;;;;;;16.23;8.93;;;17.30;99.90;;;;;;4993191;28;20026;-47
2023/10/13 01:39:47;;;;;;;20.50;9.63;;;17.30;99.90;;;;;;4993503;28;20069;-48
2023/10/13 01:42:19;;;;;;;15.98;7.00;;;17.30;99.90;;;;;;4992045;28;20037;-46
2023/10/13 01:44:45;;;;;;;17.00;7.45;;;17.30;99.90;;;;;;4993450;28;20041;-47
2023/10/13 01:47:10;;;;;;;20.63;9.30;;;17.30;99.90;;;;;;4994836;28;20061;-46
2023/10/13 01:49:47;;;;;;;15.50;7.57;;;17.30;99.90;;;;;;4998807;28;20456;-45
2023/10/13 01:52:15;;;;;;;17.15;7.55;;;17.20;99.90;;;;;;4996842;28;20410;-45
2023/10/13 01:54:49;;;;;;;17.55;9.10;;;17.20;99.90;;;;;;4994200;28;20027;-50
2023/10/13 01:57:18;;;;;;;23.30;8.73;;;17.20;99.90;;;;;;4991800;28;20105;-48
2023/10/13 01:59:48;;;;;;;17.75;8.50;;;17.30;99.90;;;;;;4991982;28;20027;-49
2023/10/13 02:02:14;;;;;;;21.08;9.02;;;17.20;99.90;;;;;;4992618;28;20029;-50
2023/10/13 02:04:55;;;;;;;17.58;8.30;;;17.20;99.90;;;;;;4993149;28;20030;-44
2023/10/13 02:07:20;;;;;;;19.05;8.52;;;17.30;99.90;;;;;;4992847;28;20027;-47
2023/10/13 02:09:47;;;;;;;18.42;8.27;;;17.30;99.90;;;;;;4992950;28;20099;-45
2023/10/13 02:12:14;;;;;;;24.05;9.05;;;17.20;99.90;;;;;;4992741;28;20037;-46
2023/10/13 02:14:42;;;;;;;26.30;9.23;;;17.20;99.90;;;;;;4991706;28;20031;-48
2023/10/13 02:17:13;;;;;;;17.48;8.57;;;17.50;99.90;;;;;;4992698;28;20026;-49
2023/10/13 02:19:44;;;;;;;16.52;8.07;;;17.20;99.90;;;;;;4992690;28;20018;-50
2023/10/13 02:22:10;;;;;;;18.92;9.57;;;17.20;99.90;;;;;;4991264;28;20030;-45
2023/10/13 02:24:39;;;;;;;19.77;8.65;;;17.20;99.90;;;;;;4992553;28;20468;-50
2023/10/13 02:27:13;;;;;;;16.42;8.55;;;17.20;99.90;;;;;;4992619;28;20117;-49
2023/10/13 02:29:39;;;;;;;22.67;8.77;;;17.20;99.90;;;;;;4992580;28;20034;-51
2023/10/13 02:32:12;;;;;;;21.35;8.88;;;17.10;99.90;;;;;;4992558;28;20018;-46
2023/10/13 02:34:43;;;;;;;17.50;9.07;;;17.10;99.90;;;;;;4992421;28;20490;-48
2023/10/13 02:37:09;;;;;;;21.83;9.85;;;17.10;99.90;;;;;;4990993;28;20054;-46
2023/10/13 02:39:36;;;;;;;11.95;8.48;;;17.10;99.90;;;;;;4992382;28;20027;-49
2023/10/13 02:42:06;;;;;;;20.05;9.45;;;17.10;99.90;;;;;;4992467;28;20018;-47
2023/10/13 02:44:33;;;;;;;17.70;9.45;;;17.20;99.90;;;;;;4992234;28;20077;-45
2023/10/13 02:46:59;;;;;;;21.90;9.68;;;17.10;99.90;;;;;;4992192;28;20379;-46
2023/10/13 02:49:26;;;;;;;20.45;9.48;;;17.10;99.90;;;;;;4992281;28;20513;-47
2023/10/13 02:51:55;;;;;;;19.73;9.75;;;17.10;99.90;;;;;;4992194;28;20138;-45
2023/10/13 02:54:20;;;;;;;16.38;9.02;;;17.00;99.90;;;;;;4992133;28;20395;-47
2023/10/13 02:56:56;;;;;;;28.83;10.63;;;17.00;99.90;;;;;;4992141;28;20148;-46
2023/10/13 02:59:34;;;;;;;18.70;10.07;;;17.00;99.90;;;;;;4992201;28;20454;-45
2023/10/13 03:02:17;;;;;;;19.75;9.77;;;16.90;99.90;;;;;;4991812;28;20097;-45
2023/10/13 03:04:45;;;;;;;19.60;9.57;;;16.90;99.90;;;;;;4992190;28;20179;-45
2023/10/13 03:07:15;;;;;;;22.38;9.60;;;16.90;99.90;;;;;;4991238;28;20014;-45
2023/10/13 03:09:49;;;;;;;25.63;10.40;;;16.90;99.90;;;;;;4992155;28;20031;-45
2023/10/13 03:12:15;;;;;;;21.85;9.43;;;16.80;99.90;;;;;;4992183;28;20039;-45
2023/10/13 03:14:41;;;;;;;17.42;10.18;;;16.80;99.90;;;;;;4990919;28;20026;-48
2023/10/13 03:17:13;;;;;;;15.27;9.98;;;16.80;99.90;;;;;;4992234;28;20465;-46
2023/10/13 03:19:46;;;;;;;16.52;8.95;;;16.80;99.90;;;;;;4992202;28;20506;-46
2023/10/13 03:22:15;;;;;;;23.20;9.05;;;16.80;99.90;;;;;;4990709;28;20026;-46
2023/10/13 03:24:45;;;;;;;20.23;9.73;;;16.90;99.90;;;;;;4991928;28;20438;-44
2023/10/13 03:27:16;;;;;;;14.98;9.27;;;16.90;99.90;;;;;;4990506;28;20034;-46
2023/10/13 03:29:44;;;;;;;18.90;9.48;;;16.90;99.90;;;;;;4992087;28;20023;-43
2023/10/13 03:32:15;;;;;;;18.25;9.68;;;16.90;99.90;;;;;;4991888;28;20030;-45
2023/10/13 03:34:49;;;;;;;19.92;9.85;;;16.90;99.90;;;;;;4991989;28;20031;-45
2023/10/13 03:43:04;;;;;;;17.70;9.98;;;16.80;99.90;;;;;;4991729;28;19906;-48
2023/10/13 03:45:42;;;;;;;16.27;9.48;;;16.80;99.90;;;;;;4991621;28;20022;-44
2023/10/13 03:49:13;;;;;;;20.40;9.63;;;16.80;99.90;;;;;;4991790;28;20037;-48
2023/10/13 03:51:07;;;;;;;24.00;9.52;;;16.70;99.90;;;;;;4986960;28;20052;-49
2023/10/13 03:53:33;;;;;;;21.77;11.30;;;16.70;99.90;;;;;;4991830;28;20027;-48
2023/10/13 03:56:14;;;;;;;17.63;9.60;;;16.80;99.90;;;;;;4991548;28;20020;-45
2023/10/13 03:58:46;;;;;;;15.85;9.45;;;16.80;99.90;;;;;;4992069;28;20390;-46
2023/10/13 04:01:16;;;;;;;16.25;9.20;;;16.70;99.90;;;;;;4991899;28;20521;-48
2023/10/13 04:03:57;;;;;;;18.67;9.10;;;16.80;99.90;;;;;;4991388;28;20023;-47
2023/10/13 04:15:14;;;;;;;14.85;9.35;;;16.70;99.90;;;;;;4991848;28;20482;-46
2023/10/13 04:17:22;;;;;;;14.52;9.45;;;16.80;99.90;;;;;;4991591;28;20084;-47
2023/10/13 04:36:14;;;;;;;15.68;9.25;;;16.90;99.90;;;;;;4994741;28;20026;-45
2023/10/13 04:41:31;;;;;;;24.67;9.43;;;16.90;99.90;;;;;;4999724;28;20062;-46
2023/10/13 04:52:12;;;;;;;16.73;9.10;;;16.90;99.90;;;;;;4994729;28;20045;-50
2023/10/13 05:01:16;;;;;;;18.97;9.57;;;16.90;99.90;;;;;;4993386;28;20034;-46
2023/10/13 05:03:40;;;;;;;18.42;8.70;;;16.90;99.90;;;;;;4988899;28;20289;-45
2023/10/13 05:44:33;;;;;;;24.40;10.82;;;16.70;99.90;;;;;;4993205;28;20502;-48
2023/10/13 05:47:46;;;;;;;;;;;16.70;99.90;;;;;;4993778;28;20022;-46
2023/10/13 05:49:52;;;;;;;17.35;9.38;;;16.70;99.90;;;;;;4993294;28;19917;-45
2023/10/13 06:28:40;;;;;;;14.50;8.45;;;16.70;99.90;;;;;;4993195;28;20039;-50
2023/10/13 06:28:41;;;;;;;13.45;8.57;;;16.90;99.90;;;;;;4983521;28;20494;-46
2023/10/13 06:31:12;;;;;;;13.35;7.10;;;17.10;99.90;;;;;;4992883;28;20027;-47
2023/10/13 06:33:44;;;;;;;13.95;8.18;;;17.10;99.90;;;;;;4992390;28;20102;-48
2023/10/13 06:36:10;;;;;;;17.13;7.70;;;17.30;99.90;;;;;;4992530;28;20048;-48
2023/10/13 06:38:36;;;;;;;15.15;8.25;;;17.30;99.90;;;;;;4992577;28;20070;-49
2023/10/13 06:41:05;;;;;;;19.27;7.82;;;17.40;99.90;;;;;;4992575;28;20441;-48
2023/10/13 06:43:43;;;;;;;16.00;7.38;;;17.40;99.90;;;;;;4991710;28;20032;-49
2023/10/13 06:46:14;;;;;;;16.02;9.98;;;17.60;99.90;;;;;;4988742;28;20030;-46
2023/10/13 06:48:41;;;;;;;16.25;7.30;;;17.90;99.90;;;;;;4971641;28;20026;-50
2023/10/13 06:51:21;;;;;;;17.80;7.90;;;18.10;99.90;;;;;;4985659;28;20030;-47
2023/10/13 06:53:48;;;;;;;17.90;7.80;;;18.60;99.90;;;;;;4991457;28;20026;-48
2023/10/13 06:56:22;;;;;;;15.13;7.57;;;19.20;99.90;;;;;;4992167;28;20127;-45
2023/10/13 06:58:48;;;;;;;16.33;7.73;;;19.50;99.90;;;;;;4992133;28;20029;-46
2023/10/13 07:01:21;;;;;;;16.50;8.52;;;19.60;99.90;;;;;;4992870;28;20077;-46
2023/10/13 07:03:52;;;;;;;16.42;7.22;;;19.80;99.90;;;;;;4993381;28;20401;-44
2023/10/13 07:06:19;;;;;;;14.55;7.43;;;19.80;99.90;;;;;;4992844;28;20359;-47
2023/10/13 07:08:55;;;;;;;10.15;7.13;;;19.80;99.90;;;;;;4993313;28;20458;-46
2023/10/13 07:11:33;;;;;;;14.05;7.45;;;19.70;99.90;;;;;;4993422;28;20077;-48
2023/10/13 07:14:10;;;;;;;19.52;8.05;;;19.30;99.90;;;;;;4992234;28;20034;-47
2023/10/13 07:16:46;;;;;;;22.17;8.15;;;19.30;99.90;;;;;;4992675;28;20031;-46
2023/10/13 07:19:16;;;;;;;14.50;7.07;;;19.20;99.90;;;;;;4992011;28;20030;-47
2023/10/13 07:21:45;;;;;;;19.33;8.85;;;19.10;99.90;;;;;;4992415;28;20034;-46
2023/10/13 07:24:13;;;;;;;17.35;7.53;;;19.00;99.90;;;;;;4992308;28;20025;-47
2023/10/13 07:26:42;;;;;;;16.25;7.15;;;19.10;99.90;;;;;;4992045;28;20026;-47
2023/10/13 07:29:11;;;;;;;17.55;6.97;;;19.00;99.90;;;;;;4992474;28;20030;-47
2023/10/13 07:31:41;;;;;;;15.23;8.23;;;19.10;99.90;;;;;;4992442;28;20065;-46
2023/10/13 07:34:12;;;;;;;14.00;6.57;;;19.10;99.90;;;;;;4991913;28;20026;-49
2023/10/13 07:36:39;;;;;;;14.60;7.75;;;19.70;99.90;;;;;;4992048;28;20019;-48
2023/10/13 07:39:21;;;;;;;15.38;8.48;;;19.20;99.90;;;;;;4992219;28;20065;-48
2023/10/13 07:41:51;;;;;;;16.42;7.75;;;19.20;99.90;;;;;;4992312;28;20490;-45
2023/10/13 07:44:19;;;;;;;16.90;7.40;;;19.30;99.90;;;;;;4992702;28;20031;-46
2023/10/13 07:46:48;;;;;;;12.43;6.05;;;19.30;99.90;;;;;;4991949;28;20410;-47
2023/10/13 07:49:14;;;;;;;14.15;7.00;;;19.40;99.90;;;;;;4990749;28;20117;-46
2023/10/13 07:51:49;;;;;;;15.27;7.15;;;19.50;99.90;;;;;;4991925;28;20518;-48
2023/10/13 07:54:21;;;;;;;10.55;7.45;;;19.60;99.90;;;;;;4995099;28;20022;-47
2023/10/13 07:56:50;;;;;;;13.10;7.75;;;19.70;99.90;;;;;;4995322;28;20426;-47
2023/10/13 07:59:16;;;;;;;10.18;6.80;;;19.70;99.90;;;;;;4995638;28;20022;-50
2023/10/13 08:01:45;;;;;;;17.85;7.20;;;19.70;99.90;;;;;;4996009;28;20032;-45
2023/10/13 08:04:22;;;;;;;10.35;6.50;;;19.70;99.90;;;;;;4995879;28;20027;-49
2023/10/13 08:06:48;;;;;;;21.42;7.72;;;19.70;99.90;;;;;;4995691;28;20102;-45
2023/10/13 08:09:40;;;;;;;14.90;6.97;;;19.80;99.90;;;;;;4995741;28;20102;-46
2023/10/13 08:12:10;;;;;;;21.70;7.10;;;19.80;99.90;;;;;;4995575;28;20395;-46
2023/10/13 08:14:38;;;;;;;14.50;7.32;;;20.30;99.90;;;;;;4995610;28;20041;-46
2023/10/13 08:17:09;;;;;;;16.52;6.30;;;19.90;99.90;;;;;;4994105;28;20048;-48
2023/10/13 08:19:46;;;;;;;60.03;37.53;;;19.90;99.90;;;;;;4995640;28;20085;-46
2023/10/13 08:27:34;;;;;;;19.42;6.72;;;19.90;99.90;;;;;;4995250;28;20026;-47
2023/10/13 08:32:58;;;;;;;15.88;6.85;;;19.80;99.90;;;;;;4995413;28;20033;-46
2023/10/13 08:35:54;;;;;;;15.85;6.10;;;19.80;99.90;;;;;;4994491;28;20030;-47
2023/10/13 08:38:17;;;;;;;12.15;5.88;;;19.80;99.90;;;;;;4995209;28;20092;-47
2023/10/13 08:41:28;;;;;;;12.60;6.13;;;19.90;99.90;;;;;;4995600;28;20022;-49
2023/10/13 08:43:43;;;;;;;16.73;6.55;;;19.80;99.90;;;;;;4995057;28;20022;-48
2023/10/13 08:46:09;;;;;;;10.40;6.80;;;19.80;99.90;;;;;;4995142;28;20014;-48
2023/10/13 08:48:36;;;;;;;20.48;6.22;;;19.80;99.90;;;;;;4995219;28;20023;-45
2023/10/13 08:51:30;;;;;;;16.02;6.38;;;19.80;99.90;;;;;;4994409;28;20031;-46
2023/10/13 08:53:57;;;;;;;11.32;5.43;;;19.80;99.90;;;;;;4994175;28;20502;-44
2023/10/13 08:56:46;;;;;;;16.45;7.03;;;19.80;99.90;;;;;;4994546;28;20397;-49
2023/10/13 08:59:22;;;;;;;14.77;6.35;;;19.90;99.90;;;;;;4993179;28;20052;-48
2023/10/13 09:01:59;;;;;;;;;;;19.90;99.90;;;;;;4995104;28;20023;-49
2023/10/13 09:04:33;;;;;;;15.82;6.15;;;20.00;99.90;;;;;;4992515;28;19914;-44
2023/10/13 09:09:44;;;;;;;15.57;5.70;;;20.10;99.90;;;;;;4992311;28;20030;-48
2023/10/13 09:12:25;;;;;;;19.85;5.38;;;20.30;99.90;;;;;;4991734;28;20114;-48
2023/10/13 09:14:58;;;;;;;12.80;6.38;;;20.40;99.90;;;;;;4992089;28;20034;-45
2023/10/13 09:17:35;;;;;;;14.48;6.35;;;20.70;99.90;;;;;;5001970;28;20022;-48
2023/10/13 09:25:33;;;;;;;14.73;5.18;;;22.60;99.90;;;;;;4994109;28;20042;-46
2023/10/13 09:28:00;;;;;;;13.98;5.32;;;23.70;99.90;;;;;;4994420;28;20406;-47
2023/10/13 09:30:30;;;;;;;11.15;4.88;;;24.60;99.90;;;;;;4994249;28;20050;-46
2023/10/13 09:33:08;;;;;;;17.52;5.25;;;25.20;99.90;;;;;;4994047;28;20054;-47
2023/10/13 09:35:36;;;;;;;11.50;4.80;;;26.10;99.90;;;;;;4993883;28;20486;-46
2023/10/13 09:38:02;;;;;;;7.93;4.30;;;26.40;99.90;;;;;;4993892;28;20030;-50
2023/10/13 09:42:59;;;;;;;12.30;4.88;;;27.10;98.90;;;;;;4993499;28;20557;-47
2023/10/13 09:45:36;;;;;;;9.65;4.75;;;26.40;98.70;;;;;;4993219;28;20021;-49
2023/10/13 09:48:16;;;;;;;9.23;5.10;;;26.00;99.20;;;;;;4993693;28;20065;-47
2023/10/13 09:50:44;;;;;;;14.70;5.13;;;25.10;99.90;;;;;;4993078;28;20030;-51
2023/10/13 09:53:13;;;;;;;13.00;5.60;;;24.60;99.90;;;;;;4996121;28;20056;-47
2023/10/13 09:55:44;;;;;;;9.27;4.82;;;24.20;99.90;;;;;;5011909;28;20095;-49
2023/10/13 09:58:13;;;;;;;10.10;4.82;;;23.90;99.90;;;;;;4973456;28;20030;-47
2023/10/13 10:00:57;;;;;;;8.77;5.22;;;23.70;99.90;;;;;;4973605;28;20050;-46
2023/10/13 10:06:07;;;;;;;12.40;4.45;;;24.10;99.90;;;;;;4973587;28;20027;-45
2023/10/13 10:08:34;;;;;;;16.05;5.30;;;24.40;99.90;;;;;;4990376;28;20065;-50
2023/10/13 10:11:54;;;;;;;11.80;4.82;;;24.60;99.90;;;;;;4991710;28;20030;-49
2023/10/13 10:14:37;;;;;;;13.73;5.20;;;24.80;99.90;;;;;;4951323;28;20043;-45
2023/10/13 10:17:10;;;;;;;24.77;15.82;;;24.50;99.90;;;;;;4932128;29;20069;-47
2023/10/13 10:19:49;;;;;;;9.10;5.53;;;24.10;99.90;;;;;;4958383;28;20130;-45
2023/10/13 10:22:27;;;;;;;89.03;51.10;;;23.60;99.90;;;;;;4973034;28;20441;-46
2023/10/13 10:25:00;;;;;;;12.70;5.70;;;23.40;99.90;;;;;;4972053;28;20030;-47
2023/10/13 10:27:29;;;;;;;12.20;5.10;;;23.10;99.90;;;;;;4973014;28;20085;-46
2023/10/13 10:29:55;;;;;;;13.15;5.65;;;22.90;99.90;;;;;;4972960;28;20027;-45
2023/10/13 10:32:21;;;;;;;12.18;5.32;;;22.70;99.90;;;;;;4972317;28;20031;-45
2023/10/13 10:34:47;;;;;;;7.78;4.90;;;22.70;99.90;;;;;;4972750;28;20093;-46
2023/10/13 10:37:13;;;;;;;16.70;5.28;;;22.60;99.90;;;;;;4972545;28;20085;-45
2023/10/13 10:39:49;;;;;;;13.48;5.82;;;22.70;99.90;;;;;;4972590;28;20030;-46
2023/10/13 10:42:15;;;;;;;14.20;5.72;;;22.70;99.90;;;;;;4972694;28;20430;-48
2023/10/13 10:44:44;;;;;;;9.02;5.00;;;22.90;99.90;;;;;;4975286;28;20102;-46
2023/10/13 10:47:19;;;;;;;7.20;4.63;;;23.10;99.90;;;;;;4990327;28;20026;-48
2023/10/13 10:49:47;;;;;;;16.73;5.15;;;23.40;99.90;;;;;;4972811;28;20057;-47
2023/10/13 10:52:20;;;;;;;14.48;5.00;;;23.60;99.90;;;;;;4984733;28;20105;-47
2023/10/13 10:54:51;;;;;;;7.80;4.35;;;23.70;99.90;;;;;;4991524;28;20037;-46
2023/10/13 10:57:17;;;;;;;21.05;4.85;;;23.80;99.90;;;;;;4990283;28;20022;-49
2023/10/13 10:59:44;;;;;;;16.30;4.75;;;23.80;99.90;;;;;;4991731;28;20022;-46
2023/10/13 11:02:15;;;;;;;7.35;3.97;;;23.90;99.90;;;;;;4990568;28;20026;-44
2023/10/13 11:04:50;;;;;;;11.38;4.47;;;23.90;99.90;;;;;;4991296;28;20031;-46
2023/10/13 11:07:24;;;;;;;7.45;4.60;;;24.00;99.90;;;;;;4991873;28;20034;-46
2023/10/13 11:09:52;;;;;;;9.52;5.05;;;24.10;99.90;;;;;;4992390;28;20513;-46
2023/10/13 11:12:26;;;;;;;10.45;4.88;;;24.20;99.90;;;;;;4991561;28;20414;-48
2023/10/13 11:15:05;;;;;;;7.95;4.55;;;24.30;99.90;;;;;;4992441;28;20030;-46
2023/10/13 11:17:41;;;;;;;12.27;5.03;;;24.50;99.90;;;;;;4991854;28;20022;-47
2023/10/13 11:20:18;;;;;;;9.80;5.32;;;24.50;99.90;;;;;;4992049;28;20033;-47
2023/10/13 11:22:48;;;;;;;19.95;13.43;;;24.50;99.90;;;;;;4991884;28;20034;-48
2023/10/13 11:25:29;;;;;;;14.05;5.03;;;24.40;99.90;;;;;;4991938;28;20106;-47
2023/10/13 11:27:58;;;;;;;7.25;4.55;;;24.30;99.90;;;;;;4993186;28;20034;-46
2023/10/13 11:30:25;;;;;;;10.38;5.03;;;24.30;99.90;;;;;;4996047;28;20019;-46
2023/10/13 11:33:08;;;;;;;10.88;4.57;;;24.30;99.90;;;;;;4995934;28;20046;-51
2023/10/13 11:38:26;;;;;;;8.98;4.97;;;24.20;99.90;;;;;;4996035;28;20030;-49
2023/10/13 11:48:36;;;;;;;9.55;4.10;;;24.60;99.90;;;;;;4995479;28;20410;-45
2023/10/13 11:51:24;;;;;;;7.57;4.40;;;24.60;99.90;;;;;;4995140;28;20078;-47
2023/10/13 11:53:52;;;;;;;6.40;4.35;;;24.70;99.90;;;;;;4995162;28;20108;-46
2023/10/13 11:56:23;;;;;;;8.27;4.30;;;24.80;99.90;;;;;;4995256;28;20022;-46
2023/10/13 11:58:48;;;;;;;9.18;4.45;;;24.80;99.90;;;;;;4994961;28;20046;-45
2023/10/13 12:11:50;;;;;;;11.20;4.97;;;25.30;99.90;;;;;;4995542;28;20023;-46
2023/10/13 12:14:17;;;;;;;15.65;4.78;;;25.40;99.90;;;;;;4994865;28;20030;-53
2023/10/13 12:16:48;;;;;;;11.63;4.78;;;25.40;99.90;;;;;;4993620;28;20030;-49
2023/10/13 12:19:17;;;;;;;10.20;4.25;;;25.30;99.90;;;;;;4995017;28;20030;-52
2023/10/13 12:21:44;;;;;;;6.38;3.95;;;25.30;99.90;;;;;;4994921;28;20030;-49
2023/10/13 12:24:22;;;;;;;8.40;4.20;;;25.20;99.90;;;;;;4994940;28;20022;-47
2023/10/13 12:26:55;;;;;;;14.18;4.43;;;25.20;99.90;;;;;;4994747;28;20457;-48
2023/10/13 12:29:22;;;;;;;11.95;5.15;;;25.20;99.90;;;;;;4994939;28;20139;-49
2023/10/13 12:32:05;;;;;;;11.57;4.70;;;25.10;99.90;;;;;;4994718;28;20026;-44
2023/10/13 12:51:07;;;;;;;4.70;4.13;;;25.40;99.90;;;;;;4994448;28;20049;-51
2023/10/13 12:53:33;;;;;;;8.57;4.07;;;25.60;99.90;;;;;;4994367;28;20029;-45
2023/10/13 12:55:59;;;;;;;8.20;3.75;;;25.70;99.90;;;;;;4994138;28;20114;-47
2023/10/13 12:58:26;;;;;;;9.02;3.58;;;26.00;97.90;;;;;;4993119;28;20026;-46
2023/10/13 13:01:01;;;;;;;9.38;3.45;;;26.10;96.80;;;;;;4994156;28;20027;-44
2023/10/13 13:03:29;;;;;;;9.65;3.60;;;26.20;95.50;;;;;;4994049;28;20034;-44
2023/10/13 13:05:55;;;;;;;10.52;3.47;;;26.30;95.60;;;;;;4994247;28;20018;-45
2023/10/13 13:08:24;;;;;;;12.25;3.75;;;26.30;94.30;;;;;;4993847;28;20014;-45
2023/10/13 13:10:50;;;;;;;15.95;4.28;;;26.20;93.70;;;;;;4994389;28;20030;-45
2023/10/13 13:13:16;;;;;;;11.77;5.25;;;26.40;93.40;;;;;;4994103;28;20050;-49
2023/10/13 13:15:42;;;;;;;8.05;3.92;;;26.30;93.80;;;;;;4994129;28;20034;-46
2023/10/13 13:18:11;;;;;;;18.55;3.53;;;26.30;93.30;;;;;;4994840;28;20034;-45
2023/10/13 13:20:43;;;;;;;4.25;3.45;;;26.20;92.70;;;;;;4994628;28;20033;-47
2023/10/13 13:23:12;;;;;;;7.72;3.28;;;26.20;93.00;;;;;;4994324;28;20046;-46
2023/10/13 13:25:42;;;;;;;13.95;3.60;;;26.20;93.30;;;;;;4994247;28;20176;-45
2023/10/13 13:28:09;;;;;;;6.93;3.47;;;26.20;93.10;;;;;;4994359;28;20029;-46
2023/10/13 13:30:37;;;;;;;7.80;3.65;;;26.20;93.40;;;;;;4992954;28;20026;-46
2023/10/13 13:33:12;;;;;;;9.85;4.18;;;26.30;93.50;;;;;;4994232;28;20523;-46
2023/10/13 13:35:39;;;;;;;10.10;3.60;;;26.30;93.70;;;;;;4994106;28;20034;-44
2023/10/13 13:38:16;;;;;;;6.65;3.75;;;26.30;93.80;;;;;;4994112;28;20034;-46
2023/10/13 13:40:44;;;;;;;15.98;3.97;;;26.30;93.30;;;;;;4993607;28;20533;-48
2023/10/13 13:43:18;;;;;;;7.65;3.65;;;26.10;93.40;;;;;;4993656;28;20034;-45
2023/10/13 13:45:45;;;;;;;11.43;3.35;;;26.10;93.50;;;;;;4993869;28;20146;-48
2023/10/13 13:48:15;;;;;;;7.15;3.50;;;26.00;93.70;;;;;;4993824;28;20015;-49
2023/10/13 13:50:41;;;;;;;11.43;4.13;;;25.90;93.30;;;;;;4993458;28;20022;-48
2023/10/13 13:53:09;;;;;;;11.98;3.90;;;25.90;93.40;;;;;;4993639;28;20030;-44
2023/10/13 13:55:34;;;;;;;28.60;20.08;;;25.80;93.30;;;;;;4992455;28;20038;-46
2023/10/13 13:58:00;;;;;;;14.48;3.95;;;25.70;93.30;;;;;;4994075;28;20022;-49
2023/10/13 14:00:39;;;;;;;13.15;3.92;;;25.80;92.60;;;;;;4993965;28;20070;-47
2023/10/13 14:03:05;;;;;;;8.68;3.72;;;25.80;92.60;;;;;;4993167;28;20433;-44
2023/10/13 14:05:31;;;;;;;8.18;3.70;;;25.80;92.60;;;;;;4993368;28;20345;-47
2023/10/13 14:07:57;;;;;;;8.07;4.13;;;25.80;92.60;;;;;;4993023;28;20386;-47
2023/10/13 14:10:32;;;;;;;9.05;3.63;;;25.80;92.50;;;;;;4993199;28;20022;-50
2023/10/13 14:13:06;;;;;;;8.43;3.38;;;25.80;92.30;;;;;;4993016;28;20038;-47
2023/10/13 14:15:43;;;;;;;13.75;3.75;;;25.80;91.60;;;;;;4992970;28;20033;-46
2023/10/13 14:18:14;;;;;;;7.10;3.00;;;25.90;91.40;;;;;;4992743;28;20034;-46
2023/10/13 14:20:41;;;;;;;11.27;3.60;;;26.00;91.00;;;;;;4992681;28;20113;-49
2023/10/13 14:23:09;;;;;;;7.90;4.10;;;26.00;91.10;;;;;;4992566;28;20022;-46
2023/10/13 14:25:37;;;;;;;8.52;3.53;;;26.10;91.30;;;;;;4991126;28;20026;-47
2023/10/13 14:28:06;;;;;;;7.88;4.65;;;26.10;91.30;;;;;;4992430;28;20053;-45
2023/10/13 14:30:32;;;;;;;10.57;3.53;;;26.10;91.50;;;;;;4992960;28;20398;-47
2023/10/13 14:32:58;;;;;;;7.95;4.03;;;26.00;91.60;;;;;;4992316;28;20027;-48
2023/10/13 14:35:25;;;;;;;10.20;3.40;;;26.00;92.20;;;;;;4992634;28;20039;-47
2023/10/13 14:37:51;;;;;;;12.48;4.70;;;25.90;92.20;;;;;;4992630;28;20022;-45
2023/10/13 14:40:21;;;;;;;7.95;3.30;;;26.00;92.50;;;;;;4992552;28;20022;-46
2023/10/13 14:42:47;;;;;;;12.38;3.58;;;26.10;92.60;;;;;;4991046;28;20022;-45
2023/10/13 14:45:13;;;;;;;12.52;4.07;;;26.10;92.60;;;;;;4992344;28;20101;-46
2023/10/13 14:47:42;;;;;;;10.30;3.35;;;26.10;91.80;;;;;;4991117;28;20122;-46
2023/10/13 14:50:21;;;;;;;8.30;3.15;;;26.20;91.50;;;;;;4992794;28;20081;-46
2023/10/13 14:52:48;;;;;;;8.32;3.28;;;26.20;90.90;;;;;;4992212;28;20030;-49
2023/10/13 14:55:20;;;;;;;8.93;3.45;;;26.20;91.20;;;;;;4992048;28;20023;-47
2023/10/13 14:57:47;;;;;;;10.13;3.47;;;26.30;90.80;;;;;;4991832;28;20034;-47
2023/10/13 15:00:13;;;;;;;9.25;3.58;;;26.20;90.90;;;;;;5000919;28;20022;-48
2023/10/13 15:02:39;;;;;;;8.43;3.75;;;26.10;91.20;;;;;;5002307;28;20441;-47
2023/10/13 15:05:04;;;;;;;8.05;3.55;;;26.10;91.40;;;;;;5011683;28;20080;-48
2023/10/13 15:07:30;;;;;;;11.55;3.75;;;25.90;91.50;;;;;;5011638;28;20392;-50
2023/10/13 15:09:57;;;;;;;28.73;4.78;;;25.80;92.00;;;;;;5011622;28;20080;-45
2023/10/13 15:12:22;;;;;;;14.05;4.35;;;25.70;91.90;;;;;;5011429;28;20049;-45
2023/10/13 15:14:48;;;;;;;11.45;4.55;;;25.70;91.90;;;;;;5011312;28;20068;-48
2023/10/13 15:17:15;;;;;;;16.65;5.32;;;25.70;92.10;;;;;;5011596;28;20065;-47
2023/10/13 15:19:42;;;;;;;10.38;3.45;;;25.70;92.40;;;;;;5011637;28;20037;-49
2023/10/13 15:22:16;;;;;;;8.05;3.80;;;25.60;92.60;;;;;;5011669;28;20022;-49
2023/10/13 15:24:46;;;;;;;11.27;3.50;;;25.60;92.60;;;;;;5011068;28;20534;-45
2023/10/13 15:27:11;;;;;;;12.05;3.78;;;25.60;92.60;;;;;;5009972;28;20068;-49
2023/10/13 15:29:37;;;;;;;9.30;3.22;;;25.60;92.60;;;;;;5011437;28;20437;-49
2023/10/13 15:32:05;;;;;;;9.40;3.28;;;25.60;92.50;;;;;;5011120;28;20429;-46
2023/10/13 15:34:31;;;;;;;33.45;16.83;;;25.40;92.70;;;;;;5011241;28;20034;-52
2023/10/13 15:36:58;;;;;;;30.60;15.07;;;25.40;93.10;;;;;;5011273;28;20026;-48
2023/10/13 15:39:28;;;;;;;6.10;4.30;;;25.40;93.20;;;;;;5011345;28;20037;-46
2023/10/13 15:41:54;;;;;;;7.78;3.65;;;25.30;93.20;;;;;;5011553;28;20108;-49
2023/10/13 15:44:21;;;;;;;9.43;3.92;;;25.30;93.40;;;;;;5011272;28;20025;-56
2023/10/13 15:46:49;;;;;;;7.40;3.00;;;25.20;93.50;;;;;;5011374;28;20018;-54
2023/10/13 15:49:15;;;;;;;7.55;3.35;;;25.20;93.90;;;;;;5011527;28;20021;-56
2023/10/13 15:51:41;;;;;;;12.32;3.40;;;25.10;94.10;;;;;;5010484;28;20026;-55
2023/10/13 15:54:14;;;;;;;6.82;4.05;;;25.00;94.30;;;;;;5011401;28;20030;-56
2023/10/13 15:56:41;;;;;;;53.80;7.40;;;24.90;94.60;;;;;;5011506;28;20026;-54
2023/10/13 15:59:07;;;;;;;16.50;5.18;;;24.80;94.60;;;;;;5011639;28;20022;-51
2023/10/13 16:01:33;;;;;;;13.95;3.72;;;24.80;94.80;;;;;;5011093;28;20018;-52